createdAt,value
2022-12-31T00:02:15.287Z,25.33
2022-12-31T00:05:18.036Z,24.20
2022-12-31T00:08:20.579Z,24.17
2022-12-31T00:11:24.605Z,22.67
2022-12-31T00:14:26.803Z,22.30
2022-12-31T00:17:30.257Z,23.08
2022-12-31T00:20:32.749Z,22.27
2022-12-31T00:23:36.539Z,23.08
2022-12-31T00:26:38.774Z,23.73
2022-12-31T00:29:41.298Z,25.05
2022-12-31T00:32:43.665Z,22.75
2022-12-31T00:35:46.337Z,22.80
2022-12-31T00:38:50.171Z,23.90
2022-12-31T00:41:52.696Z,24.80
2022-12-31T00:44:55.054Z,23.45
2022-12-31T00:47:57.684Z,23.30
2022-12-31T00:51:01.190Z,23.45
2022-12-31T00:54:03.993Z,24.98
2022-12-31T00:57:06.216Z,23.40
2022-12-31T01:00:09.610Z,24.73
2022-12-31T01:03:11.997Z,22.70
2022-12-31T01:06:15.433Z,21.83
2022-12-31T01:09:18.005Z,22.37
2022-12-31T01:12:21.046Z,22.13
2022-12-31T01:15:23.607Z,21.23
2022-12-31T01:18:26.438Z,21.00
2022-12-31T01:21:29.526Z,20.40
2022-12-31T01:24:32.593Z,21.50
2022-12-31T01:27:34.924Z,21.35
2022-12-31T01:30:41.825Z,22.27
2022-12-31T01:33:45.061Z,22.62
2022-12-31T01:36:47.600Z,21.27
2022-12-31T01:39:49.920Z,22.17
2022-12-31T01:42:57.218Z,22.80
2022-12-31T01:45:59.631Z,22.15
2022-12-31T01:49:10.114Z,23.23
2022-12-31T01:52:18.145Z,21.95
2022-12-31T01:55:32.540Z,21.85
2022-12-31T01:58:49.669Z,21.83
2022-12-31T02:01:52.782Z,23.27
2022-12-31T02:04:58.976Z,23.60
2022-12-31T02:08:03.203Z,22.73
2022-12-31T02:11:31.172Z,23.58
2022-12-31T02:14:43.203Z,24.05
2022-12-31T02:18:01.564Z,25.08
2022-12-31T02:21:38.155Z,23.70
2022-12-31T02:25:06.091Z,23.77
2022-12-31T02:28:28.226Z,25.55
2022-12-31T02:31:33.908Z,23.35
2022-12-31T02:34:47.876Z,23.85
2022-12-31T02:37:57.333Z,25.17
2022-12-31T02:41:00.703Z,24.70
2022-12-31T02:44:19.606Z,23.80
2022-12-31T02:47:27.601Z,23.95
2022-12-31T02:50:36.845Z,25.08
2022-12-31T02:54:26.748Z,24.67
2022-12-31T02:57:40.019Z,24.37
2022-12-31T03:01:16.658Z,25.17
2022-12-31T03:04:32.056Z,25.23
2022-12-31T03:07:34.851Z,24.17
2022-12-31T03:10:37.474Z,23.92
2022-12-31T03:13:39.631Z,23.33
2022-12-31T03:16:42.114Z,22.42
2022-12-31T03:20:03.049Z,22.95
2022-12-31T03:26:11.425Z,22.62
2022-12-31T03:29:14.405Z,22.83
2022-12-31T03:32:17.643Z,22.33
2022-12-31T03:35:21.767Z,22.15
2022-12-31T03:38:24.092Z,22.85
2022-12-31T03:41:26.746Z,22.73
2022-12-31T03:44:28.877Z,23.08
2022-12-31T03:47:31.598Z,23.30
2022-12-31T03:50:34.907Z,22.08
2022-12-31T03:53:37.456Z,23.83
2022-12-31T03:56:39.677Z,23.02
2022-12-31T03:59:42.248Z,23.23
2022-12-31T04:02:45.357Z,22.48
2022-12-31T04:05:55.694Z,22.48
2022-12-31T04:08:57.998Z,23.15
2022-12-31T04:12:00.638Z,23.48
2022-12-31T04:15:05.350Z,24.23
2022-12-31T04:18:07.875Z,24.42
2022-12-31T04:21:10.445Z,23.30
2022-12-31T04:24:12.930Z,23.98
2022-12-31T04:27:15.789Z,25.90
2022-12-31T04:30:18.570Z,27.02
2022-12-31T04:33:20.754Z,25.48
2022-12-31T04:36:23.454Z,26.27
2022-12-31T04:39:25.925Z,26.10
2022-12-31T04:42:28.448Z,26.58
2022-12-31T04:45:30.718Z,26.27
2022-12-31T04:48:34.072Z,25.55
2022-12-31T04:51:36.685Z,27.17
2022-12-31T04:54:39.357Z,27.85
2022-12-31T04:57:42.154Z,26.92
2022-12-31T05:00:46.128Z,26.27
2022-12-31T05:03:49.296Z,27.08
2022-12-31T05:06:51.918Z,26.27
2022-12-31T05:09:54.238Z,24.75
2022-12-31T05:12:56.817Z,26.52
2022-12-31T05:15:59.078Z,26.40
2022-12-31T05:19:01.587Z,26.58
2022-12-31T05:22:22.826Z,26.87
2022-12-31T05:25:25.527Z,26.62
2022-12-31T05:28:27.897Z,26.95
2022-12-31T05:31:30.409Z,26.75
2022-12-31T05:34:32.635Z,28.48
2022-12-31T05:37:35.336Z,27.15
2022-12-31T05:40:37.759Z,26.87
2022-12-31T05:43:40.894Z,27.92
2022-12-31T05:46:43.166Z,30.30
2022-12-31T05:49:45.821Z,29.08
2022-12-31T05:52:48.155Z,28.87
2022-12-31T05:55:50.617Z,28.27
2022-12-31T05:58:52.761Z,28.77
2022-12-31T06:01:55.255Z,27.67
2022-12-31T06:04:57.825Z,28.50
2022-12-31T06:08:00.050Z,27.52
2022-12-31T06:11:02.785Z,26.87
2022-12-31T06:14:05.233Z,27.37
2022-12-31T06:17:07.786Z,26.33
2022-12-31T06:20:13.074Z,26.42
2022-12-31T06:23:15.949Z,24.77
2022-12-31T06:26:18.190Z,25.42
2022-12-31T06:29:20.753Z,25.95
2022-12-31T06:32:22.990Z,26.92
2022-12-31T06:35:25.729Z,26.70
2022-12-31T06:38:30.844Z,27.73
2022-12-31T06:41:33.603Z,26.75
2022-12-31T06:44:35.824Z,26.40
2022-12-31T06:47:38.466Z,26.80
2022-12-31T06:50:41.538Z,26.62
2022-12-31T06:53:45.480Z,24.98
2022-12-31T06:56:48.028Z,26.42
2022-12-31T06:59:51.364Z,26.62
2022-12-31T07:03:22.885Z,29.55
2022-12-31T07:06:44.877Z,28.30
2022-12-31T07:10:17.816Z,28.00
2022-12-31T07:13:35.343Z,27.70
2022-12-31T07:16:40.649Z,28.30
2022-12-31T07:19:57.750Z,28.20
2022-12-31T07:23:00.524Z,26.48
2022-12-31T07:26:23.080Z,26.77
2022-12-31T07:29:32.926Z,25.58
2022-12-31T07:32:44.525Z,26.30
2022-12-31T07:36:11.478Z,25.48
2022-12-31T07:39:23.516Z,26.55
2022-12-31T07:42:55.964Z,24.70
2022-12-31T07:46:26.207Z,27.23
2022-12-31T07:49:30.130Z,27.65
2022-12-31T07:52:33.440Z,27.67
2022-12-31T07:55:35.991Z,26.70
2022-12-31T07:59:11.049Z,27.25
2022-12-31T08:02:50.922Z,28.00
2022-12-31T08:06:08.758Z,28.83
2022-12-31T08:09:39.247Z,27.80
2022-12-31T08:12:42.291Z,28.42
2022-12-31T08:15:45.053Z,29.25
2022-12-31T08:18:47.858Z,28.05
2022-12-31T08:22:03.910Z,30.98
2022-12-31T08:25:21.723Z,29.60
2022-12-31T08:28:38.898Z,30.58
2022-12-31T08:32:20.678Z,31.08
2022-12-31T08:35:28.757Z,30.92
2022-12-31T08:38:34.140Z,31.23
2022-12-31T08:41:45.945Z,29.67
2022-12-31T08:45:22.870Z,32.08
2022-12-31T08:48:35.756Z,31.80
2022-12-31T08:51:38.560Z,30.45
2022-12-31T08:54:41.521Z,32.33
2022-12-31T08:58:05.589Z,31.65
2022-12-31T09:01:08.691Z,32.63
2022-12-31T09:04:29.997Z,31.85
2022-12-31T09:08:06.152Z,32.33
2022-12-31T09:11:40.603Z,31.65
2022-12-31T09:14:57.769Z,30.23
2022-12-31T09:18:00.631Z,31.73
2022-12-31T09:21:04.335Z,29.08
2022-12-31T09:24:09.516Z,31.75
2022-12-31T09:27:35.493Z,30.80
2022-12-31T09:30:50.255Z,29.73
2022-12-31T09:34:00.151Z,31.33
2022-12-31T09:37:12.158Z,30.93
2022-12-31T09:40:17.350Z,30.90
2022-12-31T09:43:45.321Z,30.08
2022-12-31T09:47:24.244Z,29.12
2022-12-31T09:50:39.979Z,32.60
2022-12-31T09:54:18.693Z,32.30
2022-12-31T09:57:40.025Z,30.90
2022-12-31T10:00:52.283Z,28.85
2022-12-31T10:04:40.829Z,30.17
2022-12-31T10:08:22.295Z,30.83
2022-12-31T10:11:44.092Z,29.90
2022-12-31T10:18:04.342Z,34.20
2022-12-31T10:21:24.982Z,35.80
2022-12-31T10:25:08.525Z,34.17
2022-12-31T10:28:18.907Z,30.65
2022-12-31T10:32:01.927Z,30.05
2022-12-31T10:35:29.309Z,29.08
2022-12-31T10:38:56.025Z,28.38
2022-12-31T10:42:28.520Z,29.12
2022-12-31T10:45:52.782Z,29.12
2022-12-31T10:49:21.254Z,29.58
2022-12-31T10:52:53.063Z,28.67
2022-12-31T10:59:46.889Z,32.42
2022-12-31T11:03:30.848Z,31.70
2022-12-31T11:07:08.227Z,32.58
2022-12-31T11:10:13.716Z,31.58
2022-12-31T11:13:18.962Z,30.10
2022-12-31T11:16:36.677Z,30.73
2022-12-31T11:19:46.681Z,29.58
2022-12-31T11:23:10.694Z,30.20
2022-12-31T11:26:31.864Z,30.33
2022-12-31T11:29:57.315Z,31.27
2022-12-31T11:33:27.821Z,31.45
2022-12-31T11:37:07.942Z,31.45
2022-12-31T11:40:24.771Z,30.30
2022-12-31T11:43:40.991Z,32.38
2022-12-31T11:47:01.738Z,29.83
2022-12-31T11:50:13.524Z,30.10
2022-12-31T11:53:42.967Z,31.73
2022-12-31T11:57:02.844Z,32.13
2022-12-31T12:00:19.586Z,34.05
2022-12-31T12:03:24.505Z,35.83
2022-12-31T12:06:32.890Z,36.13
2022-12-31T12:09:35.785Z,34.97
2022-12-31T12:12:42.847Z,36.72
2022-12-31T12:15:51.865Z,36.30
2022-12-31T12:19:05.218Z,35.80
2022-12-31T12:22:22.004Z,36.72
2022-12-31T12:25:27.405Z,36.30
2022-12-31T12:28:44.296Z,36.88
2022-12-31T12:32:19.566Z,35.35
2022-12-31T12:35:29.241Z,33.97
2022-12-31T12:38:31.508Z,34.25
2022-12-31T12:41:34.556Z,35.42
2022-12-31T12:44:37.150Z,32.85
2022-12-31T12:47:43.091Z,34.28
2022-12-31T12:50:48.251Z,36.00
2022-12-31T12:54:11.426Z,35.38
2022-12-31T12:57:52.825Z,34.38
2022-12-31T13:01:12.065Z,34.95
2022-12-31T13:04:54.100Z,35.00
2022-12-31T13:08:34.571Z,33.67
2022-12-31T13:11:42.702Z,36.65
2022-12-31T13:14:54.280Z,36.63
2022-12-31T13:18:18.132Z,36.42
2022-12-31T13:21:30.946Z,37.38
2022-12-31T13:24:57.603Z,37.13
2022-12-31T13:28:06.457Z,36.78
2022-12-31T13:31:15.310Z,37.88
2022-12-31T13:34:25.759Z,37.22
2022-12-31T13:37:36.569Z,36.85
2022-12-31T13:41:05.715Z,35.88
2022-12-31T13:44:38.668Z,35.78
2022-12-31T13:47:48.349Z,35.35
2022-12-31T13:51:15.138Z,35.08
2022-12-31T13:54:31.925Z,35.80
2022-12-31T13:58:03.712Z,34.00
2022-12-31T14:01:15.408Z,34.55
2022-12-31T14:04:45.178Z,33.65
2022-12-31T14:07:54.012Z,36.55
2022-12-31T14:11:22.864Z,34.90
2022-12-31T14:14:42.243Z,34.88
2022-12-31T14:17:59.884Z,36.63
2022-12-31T14:21:12.330Z,35.00
2022-12-31T14:24:45.958Z,35.70
2022-12-31T14:27:52.278Z,34.50
2022-12-31T14:31:07.877Z,35.65
2022-12-31T14:34:32.049Z,34.92
2022-12-31T14:37:34.547Z,34.22
2022-12-31T14:41:01.348Z,34.03
2022-12-31T14:44:22.497Z,34.72
2022-12-31T14:47:44.250Z,34.00
2022-12-31T14:50:47.338Z,33.95
2022-12-31T14:53:54.198Z,34.55
2022-12-31T14:56:56.902Z,36.15
2022-12-31T15:00:01.347Z,35.30
2022-12-31T15:03:05.486Z,34.90
2022-12-31T15:06:22.690Z,32.28
2022-12-31T15:09:46.590Z,33.70
2022-12-31T15:12:59.917Z,34.83
2022-12-31T15:16:24.291Z,34.63
2022-12-31T15:19:45.180Z,34.85
2022-12-31T15:25:59.206Z,36.55
2022-12-31T15:29:05.070Z,37.28
2022-12-31T15:32:16.552Z,37.53
2022-12-31T15:35:22.305Z,35.90
2022-12-31T15:38:34.847Z,35.40
2022-12-31T15:42:18.200Z,34.53
2022-12-31T15:45:11.745Z,35.10
2022-12-31T15:48:23.743Z,35.05
2022-12-31T15:51:30.610Z,33.50
2022-12-31T15:54:42.507Z,34.88
2022-12-31T15:57:44.957Z,32.58
2022-12-31T16:00:58.870Z,34.35
2022-12-31T16:04:12.327Z,35.60
2022-12-31T16:07:15.925Z,34.47
2022-12-31T16:10:26.932Z,35.33
2022-12-31T16:13:33.247Z,34.17
2022-12-31T16:16:36.061Z,34.90
2022-12-31T16:19:44.505Z,34.85
2022-12-31T16:22:52.484Z,34.03
2022-12-31T16:25:58.872Z,33.80
2022-12-31T16:29:05.145Z,34.83
2022-12-31T16:32:16.203Z,34.80
2022-12-31T16:35:25.164Z,32.67
2022-12-31T16:38:37.890Z,32.33
2022-12-31T16:41:43.910Z,31.75
2022-12-31T16:44:47.510Z,32.22
2022-12-31T16:47:50.383Z,33.53
2022-12-31T16:50:54.760Z,34.97
2022-12-31T16:53:59.155Z,33.75
2022-12-31T16:57:01.835Z,34.72
2022-12-31T17:00:06.797Z,35.47
2022-12-31T17:03:20.305Z,35.10
2022-12-31T17:06:23.254Z,33.72
2022-12-31T17:09:38.052Z,34.75
2022-12-31T17:13:17.431Z,31.62
2022-12-31T17:16:06.236Z,32.20
2022-12-31T17:19:32.708Z,32.85
2022-12-31T17:22:42.585Z,33.17
2022-12-31T17:25:45.176Z,34.13
2022-12-31T17:28:51.012Z,34.90
2022-12-31T17:32:05.504Z,34.17
2022-12-31T17:35:28.397Z,34.85
2022-12-31T17:38:33.087Z,33.78
2022-12-31T17:41:35.920Z,33.47
2022-12-31T17:44:42.512Z,32.33
2022-12-31T17:47:51.061Z,33.28
2022-12-31T17:50:56.361Z,34.13
2022-12-31T17:54:00.773Z,34.55
2022-12-31T17:57:03.475Z,35.42
2022-12-31T18:00:06.886Z,36.10
2022-12-31T18:03:14.520Z,34.65
2022-12-31T18:06:19.445Z,36.25
2022-12-31T18:09:21.864Z,38.25
2022-12-31T18:12:25.063Z,36.20
2022-12-31T18:15:27.361Z,39.03
2022-12-31T18:18:35.864Z,38.28
2022-12-31T18:21:38.173Z,39.03
2022-12-31T18:24:41.034Z,36.80
2022-12-31T18:27:43.841Z,38.60
2022-12-31T18:30:48.039Z,38.72
2022-12-31T18:33:51.711Z,39.38
2022-12-31T18:36:54.267Z,38.55
2022-12-31T18:39:56.729Z,39.35
2022-12-31T18:43:04.655Z,39.70
2022-12-31T18:46:12.646Z,41.30
2022-12-31T18:49:15.701Z,55.55
2022-12-31T18:52:20.910Z,54.60
2022-12-31T18:55:38.903Z,58.40
2022-12-31T18:58:41.775Z,59.17
2022-12-31T19:01:44.643Z,58.92
2022-12-31T19:04:48.006Z,58.55
2022-12-31T19:07:50.766Z,55.42
2022-12-31T19:10:54.131Z,56.95
2022-12-31T19:13:56.707Z,55.35
2022-12-31T19:20:04.461Z,55.55
2022-12-31T19:23:13.101Z,54.80
2022-12-31T19:26:20.048Z,52.40
2022-12-31T19:29:25.324Z,54.15
2022-12-31T19:32:28.240Z,52.25
2022-12-31T19:35:30.589Z,51.42
2022-12-31T19:38:33.787Z,51.85
2022-12-31T19:41:36.008Z,52.22
2022-12-31T19:44:38.540Z,50.30
2022-12-31T19:47:40.892Z,50.30
2022-12-31T19:50:46.210Z,48.95
2022-12-31T19:53:49.332Z,50.40
2022-12-31T19:56:52.030Z,52.85
2022-12-31T19:59:54.197Z,52.13
2022-12-31T20:02:57.182Z,51.35
2022-12-31T20:06:08.465Z,52.47
2022-12-31T20:09:11.557Z,54.20
2022-12-31T20:12:14.597Z,53.03
2022-12-31T20:15:17.087Z,54.88
2022-12-31T20:18:21.226Z,52.75
2022-12-31T20:21:28.383Z,52.50
2022-12-31T20:24:30.961Z,52.80
2022-12-31T20:27:33.563Z,52.45
2022-12-31T20:30:39.660Z,53.40
2022-12-31T20:33:42.645Z,52.20
2022-12-31T20:36:45.448Z,57.03
2022-12-31T20:39:47.673Z,56.65
2022-12-31T20:42:50.289Z,59.47
2022-12-31T20:45:52.696Z,61.13
2022-12-31T20:48:58.829Z,61.08
2022-12-31T20:52:01.077Z,59.10
2022-12-31T20:55:03.997Z,59.05
2022-12-31T20:58:06.536Z,58.33
2022-12-31T21:01:10.647Z,59.67
2022-12-31T21:04:13.225Z,61.20
2022-12-31T21:07:15.919Z,58.70
2022-12-31T21:10:18.232Z,58.35
2022-12-31T21:13:24.390Z,58.63
2022-12-31T21:16:27.000Z,60.80
2022-12-31T21:19:29.552Z,59.95
2022-12-31T21:22:33.906Z,63.28
2022-12-31T21:25:36.481Z,62.47
2022-12-31T21:28:39.111Z,63.50
2022-12-31T21:31:41.689Z,68.03
2022-12-31T21:34:43.860Z,67.22
2022-12-31T21:37:58.628Z,68.50
2022-12-31T21:41:04.136Z,64.45
2022-12-31T21:44:08.781Z,67.32
2022-12-31T21:47:42.549Z,65.20
2022-12-31T21:50:52.287Z,66.47
2022-12-31T21:53:54.968Z,67.05
2022-12-31T21:56:57.792Z,65.55
2022-12-31T22:00:41.158Z,69.07
2022-12-31T22:06:43.490Z,67.57
2022-12-31T22:09:46.144Z,65.40
2022-12-31T22:12:48.505Z,69.22
2022-12-31T22:16:00.243Z,66.37
2022-12-31T22:19:06.756Z,66.62
2022-12-31T22:22:09.272Z,68.30
2022-12-31T22:25:11.554Z,67.07
2022-12-31T22:31:36.417Z,67.25
2022-12-31T22:34:39.063Z,65.35
2022-12-31T22:37:59.610Z,64.57
2022-12-31T22:41:07.152Z,61.28
2022-12-31T22:44:09.350Z,60.20
2022-12-31T22:47:11.972Z,62.60
2022-12-31T22:50:14.574Z,60.25
2022-12-31T22:53:17.135Z,60.60
2022-12-31T22:56:19.657Z,60.72
2022-12-31T22:59:23.820Z,62.28
2022-12-31T23:02:26.491Z,65.65
2022-12-31T23:05:29.004Z,69.47
2022-12-31T23:08:31.443Z,70.78
2022-12-31T23:11:35.967Z,72.60
2022-12-31T23:14:56.978Z,72.03
2022-12-31T23:18:18.429Z,71.47
2022-12-31T23:24:42.506Z,75.87
2022-12-31T23:27:45.446Z,69.50
2022-12-31T23:30:48.660Z,72.43
2022-12-31T23:33:51.057Z,72.07
2022-12-31T23:36:55.279Z,73.35
2022-12-31T23:39:57.865Z,81.22
2022-12-31T23:43:02.936Z,91.07
2022-12-31T23:46:05.252Z,95.78
2022-12-31T23:49:08.997Z,96.22
2022-12-31T23:52:11.288Z,89.55
2022-12-31T23:55:14.244Z,87.03
2022-12-31T23:58:17.194Z,89.00
